createdAt,value
2018-11-04T00:06:33.631Z,0.10
2018-11-04T00:09:03.030Z,0.00
2018-11-04T00:11:32.306Z,0.00
2018-11-04T00:16:30.425Z,-0.10
2018-11-04T00:19:00.631Z,-0.10
2018-11-04T00:24:05.147Z,0.00
2018-11-04T00:26:34.404Z,0.00
2018-11-04T00:29:03.657Z,-0.10
2018-11-04T00:31:33.738Z,-0.10
2018-11-04T00:34:03.025Z,-0.10
2018-11-04T00:39:01.316Z,-0.10
2018-11-04T00:41:30.972Z,-0.10
2018-11-04T00:44:00.689Z,-0.20
2018-11-04T00:46:29.985Z,-0.10
2018-11-04T01:03:59.184Z,-0.10
2018-11-04T01:06:28.536Z,-0.20
2018-11-04T01:08:58.070Z,-0.30
2018-11-04T01:11:27.338Z,-0.20
2018-11-04T01:13:56.619Z,-0.10
2018-11-04T01:16:25.900Z,-0.20
2018-11-04T01:18:56.764Z,-0.20
2018-11-04T01:21:27.654Z,-0.20
2018-11-04T01:24:04.466Z,-0.30
2018-11-04T01:26:34.070Z,-0.20
2018-11-04T01:29:03.392Z,-0.20
2018-11-04T01:31:33.205Z,-0.20
2018-11-04T01:34:02.996Z,-0.30
2018-11-04T01:53:59.843Z,-0.20
2018-11-04T01:56:29.259Z,-0.30
2018-11-04T01:58:58.606Z,-0.30
2018-11-04T02:06:25.425Z,-0.30
2018-11-04T02:08:54.742Z,-0.30
2018-11-04T02:11:24.244Z,-0.30
2018-11-04T02:16:22.410Z,-0.30
2018-11-04T02:18:51.695Z,-0.30
2018-11-04T02:23:49.786Z,-0.20
2018-11-04T02:26:19.015Z,-0.20
2018-11-04T02:31:20.686Z,-0.20
2018-11-04T02:33:50.210Z,-0.20
2018-11-04T02:36:19.830Z,-0.10
2018-11-04T02:41:18.604Z,-0.10
2018-11-04T02:43:47.844Z,0.00
2018-11-04T02:46:17.141Z,0.10
2018-11-04T02:48:46.379Z,0.20
2018-11-04T02:51:15.696Z,0.40
2018-11-04T02:53:44.873Z,0.50
2018-11-04T02:58:42.713Z,0.70
2018-11-04T03:01:11.984Z,0.80
2018-11-04T03:03:41.535Z,0.90
2018-11-04T03:06:10.719Z,0.90
2018-11-04T03:13:38.087Z,1.10
2018-11-04T03:16:07.292Z,1.10
2018-11-04T03:18:36.522Z,1.10
2018-11-04T03:21:06.429Z,1.20
2018-11-04T03:23:35.919Z,1.20
2018-11-04T03:26:05.354Z,1.30
2018-11-04T03:28:34.833Z,1.30
2018-11-04T03:31:04.260Z,1.30
2018-11-04T03:36:02.371Z,1.40
2018-11-04T03:38:31.526Z,1.50
2018-11-04T03:41:00.717Z,1.50
2018-11-04T03:43:29.951Z,1.60
2018-11-04T03:45:59.250Z,1.60
2018-11-04T03:48:28.522Z,1.70
2018-11-04T03:50:57.788Z,1.80
2018-11-04T03:53:27.119Z,1.80
2018-11-04T03:55:56.417Z,1.90
2018-11-04T03:58:25.603Z,1.90
2018-11-04T04:00:54.820Z,2.00
2018-11-04T04:03:24.247Z,2.00
2018-11-04T04:08:22.309Z,2.10
2018-11-04T04:10:52.458Z,2.10
2018-11-04T04:23:16.568Z,2.30
2018-11-04T04:25:45.717Z,2.30
2018-11-04T04:28:14.884Z,2.40
2018-11-04T04:30:50.678Z,2.50
2018-11-04T04:33:19.885Z,2.60
2018-11-04T04:40:46.672Z,2.80
2018-11-04T04:43:15.867Z,2.80
2018-11-04T04:45:45.075Z,2.90
2018-11-04T04:48:14.381Z,3.00
2018-11-04T04:53:12.296Z,3.10
2018-11-04T04:58:10.147Z,3.20
2018-11-04T05:00:39.500Z,3.20
2018-11-04T05:03:08.749Z,3.30
2018-11-04T05:05:37.954Z,3.40
2018-11-04T05:08:07.179Z,3.40
2018-11-04T05:10:36.783Z,3.40
2018-11-04T05:13:06.051Z,3.50
2018-11-04T05:15:35.328Z,3.50
2018-11-04T05:18:04.679Z,3.60
2018-11-04T05:20:33.951Z,3.60
2018-11-04T05:23:03.215Z,3.60
2018-11-04T05:25:32.486Z,3.70
2018-11-04T05:30:30.541Z,3.70
2018-11-04T05:32:59.892Z,3.80
2018-11-04T05:35:29.350Z,3.80
2018-11-04T05:37:58.576Z,3.80
2018-11-04T05:40:27.832Z,3.80
2018-11-04T05:42:57.138Z,3.90
2018-11-04T05:45:26.307Z,3.90
2018-11-04T05:47:55.541Z,4.00
2018-11-04T05:52:53.633Z,4.00
2018-11-04T05:55:29.374Z,4.00
2018-11-04T05:57:58.579Z,4.00
2018-11-04T06:12:51.859Z,4.20
2018-11-04T06:15:21.155Z,4.20
2018-11-04T06:17:50.398Z,4.30
2018-11-04T06:20:19.607Z,4.30
2018-11-04T06:25:17.594Z,4.40
2018-11-04T06:27:46.836Z,4.30
2018-11-04T06:40:11.613Z,4.40
2018-11-04T06:42:41.362Z,4.40
2018-11-04T06:45:11.037Z,4.40
2018-11-04T06:50:11.422Z,4.40
2018-11-04T06:55:10.291Z,4.50
2018-11-04T06:57:39.862Z,4.50
2018-11-04T07:00:11.062Z,4.50
2018-11-04T07:02:40.719Z,4.60
2018-11-04T07:05:09.149Z,4.70
2018-11-04T07:07:37.419Z,4.70
2018-11-04T07:10:06.497Z,4.70
2018-11-04T07:12:34.753Z,4.80
2018-11-04T07:28:03.298Z,4.90
2018-11-04T07:30:31.559Z,4.90
2018-11-04T07:33:00.663Z,4.90
2018-11-04T07:35:29.771Z,4.90
2018-11-04T07:37:58.856Z,4.90
2018-11-04T07:40:27.963Z,5.00
2018-11-04T07:42:57.146Z,5.10
2018-11-04T07:45:26.320Z,5.10
2018-11-04T07:47:55.439Z,5.20
2018-11-04T07:50:24.602Z,5.20
2018-11-04T07:52:53.719Z,5.30
2018-11-04T07:55:22.757Z,5.30
2018-11-04T07:57:51.850Z,5.30
2018-11-04T08:00:20.943Z,5.40
2018-11-04T08:02:49.992Z,5.40
2018-11-04T08:05:19.086Z,5.50
2018-11-04T08:07:47.402Z,5.50
2018-11-04T08:10:16.468Z,5.60
2018-11-04T08:12:45.498Z,5.60
2018-11-04T08:15:14.658Z,5.70
2018-11-04T08:30:43.131Z,5.70
2018-11-04T08:33:12.335Z,5.90
2018-11-04T08:35:41.408Z,5.80
2018-11-04T08:38:09.675Z,5.90
2018-11-04T08:40:37.897Z,5.90
2018-11-04T08:43:06.108Z,6.00
2018-11-04T08:45:35.123Z,6.10
2018-11-04T08:48:04.195Z,6.20
2018-11-04T08:50:32.520Z,6.20
2018-11-04T08:53:00.709Z,6.30
2018-11-04T08:55:28.884Z,6.30
2018-11-04T08:57:57.110Z,6.40
2018-11-04T09:00:27.330Z,6.50
2018-11-04T09:02:56.502Z,6.50
2018-11-04T09:05:32.458Z,6.60
2018-11-04T09:08:01.721Z,6.60
2018-11-04T09:10:31.062Z,6.60
2018-11-04T09:13:00.389Z,6.60
2018-11-04T09:15:29.752Z,6.70
2018-11-04T09:17:58.909Z,6.80
2018-11-04T09:20:28.056Z,6.80
2018-11-04T09:22:57.308Z,6.90
2018-11-04T09:25:26.547Z,6.90
2018-11-04T09:27:55.745Z,7.00
2018-11-04T09:30:25.412Z,7.10
2018-11-04T09:32:54.748Z,7.20
2018-11-04T09:35:24.103Z,7.30
2018-11-04T09:37:53.304Z,7.30
2018-11-04T09:40:22.616Z,7.40
2018-11-04T09:42:51.820Z,7.30
2018-11-04T09:45:21.119Z,7.40
2018-11-04T09:47:50.427Z,7.50
2018-11-04T09:50:19.844Z,7.50
2018-11-04T09:52:49.115Z,7.60
2018-11-04T09:55:18.866Z,7.70
2018-11-04T09:57:48.111Z,7.80
2018-11-04T10:00:17.333Z,7.90
2018-11-04T10:02:46.736Z,8.00
2018-11-04T10:05:15.913Z,8.00
2018-11-04T10:07:44.439Z,8.20
2018-11-04T10:10:14.117Z,8.20
2018-11-04T10:12:43.569Z,8.20
2018-11-04T10:15:11.889Z,8.30
2018-11-04T10:17:40.883Z,8.40
2018-11-04T10:20:10.768Z,8.50
2018-11-04T10:22:39.260Z,8.60
2018-11-04T10:25:08.829Z,8.60
2018-11-04T10:27:37.500Z,8.60
2018-11-04T10:30:07.095Z,8.70
2018-11-04T10:32:35.387Z,8.80
2018-11-04T10:35:04.356Z,8.80
2018-11-04T10:37:32.689Z,8.80
2018-11-04T10:40:01.176Z,8.90
2018-11-04T10:42:29.839Z,8.80
2018-11-04T10:44:58.071Z,9.50
2018-11-04T10:47:26.405Z,8.90
2018-11-04T10:49:55.335Z,8.90
2018-11-04T10:52:23.881Z,9.00
2018-11-04T10:54:52.161Z,9.00
2018-11-04T10:57:20.524Z,9.00
2018-11-04T10:59:49.045Z,9.10
2018-11-04T11:02:17.620Z,9.10
2018-11-04T11:04:46.106Z,9.20
2018-11-04T11:07:14.568Z,9.20
2018-11-04T11:09:42.922Z,9.30
2018-11-04T11:12:11.490Z,9.30
2018-11-04T11:14:39.778Z,9.40
2018-11-04T11:17:08.277Z,9.40
2018-11-04T11:19:36.659Z,9.50
2018-11-04T11:22:04.979Z,9.60
2018-11-04T11:24:33.644Z,9.70
2018-11-04T11:27:01.978Z,9.70
2018-11-04T11:29:30.317Z,9.80
2018-11-04T11:31:58.647Z,9.80
2018-11-04T11:34:26.850Z,9.90
2018-11-04T11:36:55.142Z,10.10
2018-11-04T11:39:23.381Z,10.10
2018-11-04T11:41:51.735Z,11.90
2018-11-04T11:44:20.065Z,10.20
2018-11-04T11:46:48.654Z,10.20
2018-11-04T11:49:16.942Z,10.30
2018-11-04T11:51:45.281Z,10.30
2018-11-04T11:54:13.758Z,10.30
2018-11-04T11:56:42.039Z,10.40
2018-11-04T11:59:10.260Z,10.30
2018-11-04T12:01:38.996Z,10.40
2018-11-04T12:04:07.447Z,10.40
2018-11-04T12:06:35.745Z,10.50
2018-11-04T12:09:05.326Z,10.50
2018-11-04T12:11:33.666Z,10.60
2018-11-04T12:14:02.202Z,10.70
2018-11-04T12:16:30.580Z,10.80
2018-11-04T12:18:58.792Z,10.90
2018-11-04T12:21:27.028Z,11.10
2018-11-04T12:23:55.569Z,11.10
2018-11-04T12:26:24.722Z,11.10
2018-11-04T12:28:53.177Z,11.10
2018-11-04T12:31:21.496Z,11.20
2018-11-04T12:33:49.862Z,11.30
2018-11-04T12:36:18.177Z,11.30
2018-11-04T12:38:46.499Z,11.30
2018-11-04T12:41:14.966Z,11.40
2018-11-04T12:43:43.329Z,11.40
2018-11-04T12:46:11.768Z,11.40
2018-11-04T12:48:40.065Z,11.40
2018-11-04T12:51:08.727Z,11.40
2018-11-04T12:53:37.462Z,11.40
2018-11-04T12:56:06.003Z,11.40
2018-11-04T12:58:34.323Z,11.40
2018-11-04T13:01:02.719Z,11.40
2018-11-04T13:03:31.061Z,11.30
2018-11-04T13:05:59.497Z,11.30
2018-11-04T13:08:27.863Z,11.40
2018-11-04T13:10:56.445Z,11.40
2018-11-04T13:13:24.779Z,11.50
2018-11-04T13:15:53.257Z,11.50
2018-11-04T13:18:21.574Z,11.50
2018-11-04T13:20:50.061Z,11.60
2018-11-04T13:23:18.426Z,11.60
2018-11-04T13:25:46.764Z,11.70
2018-11-04T13:28:15.033Z,11.70
2018-11-04T13:30:43.382Z,11.80
2018-11-04T13:33:11.778Z,11.80
2018-11-04T13:35:40.046Z,11.90
2018-11-04T13:38:08.586Z,11.90
2018-11-04T13:40:37.244Z,12.00
2018-11-04T13:43:05.633Z,12.10
2018-11-04T13:45:33.914Z,12.20
2018-11-04T13:48:02.441Z,12.20
2018-11-04T13:50:30.755Z,12.30
2018-11-04T13:52:59.162Z,12.30
2018-11-04T13:55:28.047Z,12.40
2018-11-04T13:57:56.457Z,12.50
2018-11-04T14:00:25.250Z,12.60
2018-11-04T14:02:55.789Z,12.60
2018-11-04T14:05:24.263Z,12.60
2018-11-04T14:07:52.718Z,12.60
2018-11-04T14:10:21.788Z,12.50
2018-11-04T14:12:50.111Z,12.30
2018-11-04T14:15:18.418Z,12.30
2018-11-04T14:17:46.815Z,12.30
2018-11-04T14:20:15.657Z,12.30
2018-11-04T14:22:44.061Z,12.40
2018-11-04T14:25:13.597Z,12.40
2018-11-04T14:27:42.354Z,12.30
2018-11-04T14:30:12.478Z,12.20
2018-11-04T14:32:41.121Z,12.20
2018-11-04T14:35:10.325Z,12.10
2018-11-04T14:37:39.503Z,12.10
2018-11-04T14:40:08.832Z,12.10
2018-11-04T14:42:37.525Z,12.00
2018-11-04T14:45:06.362Z,12.00
2018-11-04T14:47:34.622Z,12.00
2018-11-04T14:50:02.948Z,12.00
2018-11-04T14:52:31.331Z,12.00
2018-11-04T14:54:59.500Z,11.90
2018-11-04T14:57:27.929Z,11.90
2018-11-04T14:59:56.187Z,11.90
2018-11-04T15:02:24.516Z,11.80
2018-11-04T15:04:53.991Z,11.90
2018-11-04T15:07:23.668Z,11.80
2018-11-04T15:09:52.149Z,11.80
2018-11-04T15:12:20.548Z,11.80
2018-11-04T15:14:48.965Z,11.70
2018-11-04T15:17:17.486Z,11.70
2018-11-04T15:19:47.344Z,11.60
2018-11-04T15:22:16.074Z,11.60
2018-11-04T15:24:44.421Z,11.60
2018-11-04T15:27:12.832Z,11.50
2018-11-04T15:29:41.283Z,11.50
2018-11-04T15:32:09.652Z,11.50
2018-11-04T15:34:38.365Z,11.50
2018-11-04T15:37:06.609Z,11.50
2018-11-04T15:39:35.024Z,11.40
2018-11-04T15:42:03.343Z,11.40
2018-11-04T15:44:31.806Z,11.40
2018-11-04T15:47:00.330Z,11.40
2018-11-04T15:49:28.646Z,11.30
2018-11-04T15:51:57.078Z,11.20
2018-11-04T15:54:25.859Z,11.20
2018-11-04T15:56:54.251Z,11.20
2018-11-04T15:59:22.936Z,11.10
2018-11-04T16:01:51.470Z,11.10
2018-11-04T16:04:20.074Z,11.10
2018-11-04T16:06:48.337Z,11.10
2018-11-04T16:09:16.762Z,11.00
2018-11-04T16:11:45.452Z,11.00
2018-11-04T16:14:13.719Z,11.00
2018-11-04T16:16:42.547Z,11.00
2018-11-04T16:19:11.079Z,11.00
2018-11-04T16:21:39.385Z,11.00
2018-11-04T16:24:09.392Z,11.00
2018-11-04T16:26:38.000Z,11.00
2018-11-04T16:29:06.538Z,11.00
2018-11-04T16:31:35.179Z,11.00
2018-11-04T16:34:03.659Z,11.00
2018-11-04T16:36:32.546Z,11.00
2018-11-04T16:39:00.968Z,11.00
2018-11-04T16:41:29.515Z,11.00
2018-11-04T16:43:58.256Z,11.00
2018-11-04T16:46:26.550Z,10.90
2018-11-04T16:48:54.901Z,10.90
2018-11-04T16:51:23.253Z,10.80
2018-11-04T16:53:51.581Z,10.80
2018-11-04T16:56:20.069Z,10.80
2018-11-04T16:58:48.422Z,10.80
2018-11-04T17:01:21.398Z,10.80
2018-11-04T17:04:01.741Z,10.80
2018-11-04T17:06:42.241Z,10.70
2018-11-04T17:09:10.727Z,10.80
2018-11-04T17:11:39.335Z,10.80
2018-11-04T17:14:07.953Z,10.80
2018-11-04T17:16:37.646Z,10.80
2018-11-04T17:19:06.932Z,10.80
2018-11-04T17:21:36.364Z,10.80
2018-11-04T17:24:04.934Z,10.80
2018-11-04T17:26:33.396Z,10.80
2018-11-04T17:29:01.784Z,10.80
2018-11-04T17:31:30.316Z,10.80
2018-11-04T17:33:59.149Z,10.70
2018-11-04T17:36:27.789Z,10.80
2018-11-04T17:38:56.505Z,10.70
2018-11-04T17:41:24.883Z,10.60
2018-11-04T17:43:53.432Z,10.70
2018-11-04T17:46:22.173Z,10.70
2018-11-04T17:48:50.538Z,10.70
2018-11-04T17:51:19.009Z,10.70
2018-11-04T17:53:47.567Z,10.60
2018-11-04T17:56:15.835Z,10.60
2018-11-04T17:58:44.298Z,10.60
2018-11-04T18:01:12.905Z,10.60
2018-11-04T18:03:41.880Z,10.50
2018-11-04T18:06:10.689Z,10.50
2018-11-04T18:08:39.075Z,10.50
2018-11-04T18:11:07.689Z,10.50
2018-11-04T18:13:36.084Z,10.50
2018-11-04T18:16:04.440Z,10.50
2018-11-04T18:18:32.821Z,10.40
2018-11-04T18:21:01.327Z,10.40
2018-11-04T18:23:30.105Z,10.40
2018-11-04T18:25:58.821Z,10.40
2018-11-04T18:28:27.176Z,10.40
2018-11-04T18:30:57.299Z,10.40
2018-11-04T18:33:26.498Z,10.40
2018-11-04T18:35:55.288Z,10.40
2018-11-04T18:38:24.052Z,10.30
2018-11-04T18:40:52.503Z,10.30
2018-11-04T18:43:20.811Z,10.30
2018-11-04T18:45:49.193Z,10.30
2018-11-04T18:48:17.662Z,10.30
2018-11-04T18:50:46.146Z,10.20
2018-11-04T18:53:14.530Z,10.10
2018-11-04T18:55:43.155Z,10.00
2018-11-04T18:58:11.540Z,9.90
2018-11-04T19:00:39.981Z,9.80
2018-11-04T19:03:08.469Z,9.60
2018-11-04T19:05:36.925Z,9.40
2018-11-04T19:08:05.850Z,9.30
2018-11-04T19:10:34.903Z,9.20
2018-11-04T19:13:03.434Z,9.10
2018-11-04T19:15:31.979Z,9.00
2018-11-04T19:18:00.214Z,8.90
2018-11-04T19:20:28.478Z,8.80
2018-11-04T19:22:56.914Z,8.70
2018-11-04T19:25:25.215Z,8.60
2018-11-04T19:27:53.877Z,8.50
2018-11-04T19:30:22.158Z,8.30
2018-11-04T19:32:53.016Z,8.30
2018-11-04T19:35:22.192Z,8.30
2018-11-04T19:37:50.601Z,8.20
2018-11-04T19:40:19.717Z,8.10
2018-11-04T19:42:48.329Z,8.00
2018-11-04T19:45:16.793Z,7.90
2018-11-04T19:47:46.279Z,7.80
2018-11-04T19:50:14.765Z,7.60
2018-11-04T19:52:43.401Z,7.50
2018-11-04T19:55:12.712Z,7.50
2018-11-04T19:57:41.604Z,7.40
2018-11-04T20:00:10.635Z,7.30
2018-11-04T20:02:39.166Z,7.20
2018-11-04T20:05:08.666Z,7.20
2018-11-04T20:07:37.130Z,7.20
2018-11-04T20:10:07.491Z,7.10
2018-11-04T20:12:41.255Z,7.10
2018-11-04T20:15:09.892Z,7.10
2018-11-04T20:17:38.313Z,7.10
2018-11-04T20:20:11.907Z,7.00
2018-11-04T20:22:40.828Z,6.90
2018-11-04T20:25:14.646Z,6.90
2018-11-04T20:27:43.288Z,6.80
2018-11-04T20:30:12.998Z,6.70
2018-11-04T20:32:46.494Z,6.70
2018-11-04T20:35:16.295Z,6.70
2018-11-04T20:37:45.674Z,6.70
2018-11-04T20:40:19.301Z,6.70
2018-11-04T20:42:48.480Z,6.70
2018-11-04T20:45:17.126Z,6.70
2018-11-04T20:47:50.895Z,6.70
2018-11-04T20:50:24.893Z,6.80
2018-11-04T20:52:53.423Z,6.80
2018-11-04T20:55:21.778Z,6.80
2018-11-04T20:57:57.543Z,6.90
2018-11-04T21:00:26.423Z,6.90
2018-11-04T21:03:01.255Z,7.00
2018-11-04T21:05:29.709Z,7.00
2018-11-04T21:07:58.123Z,7.10
2018-11-04T21:10:26.706Z,7.00
2018-11-04T21:12:55.007Z,7.00
2018-11-04T21:15:23.613Z,7.00
2018-11-04T21:17:51.978Z,6.90
2018-11-04T21:20:20.471Z,6.90
2018-11-04T21:22:49.181Z,6.80
2018-11-04T21:25:17.885Z,6.70
2018-11-04T21:27:46.815Z,6.70
2018-11-04T21:30:15.290Z,6.60
2018-11-04T21:32:44.095Z,7.70
2018-11-04T21:35:12.482Z,6.60
2018-11-04T21:37:41.050Z,6.60
2018-11-04T21:40:09.969Z,6.60
2018-11-04T21:42:39.146Z,6.50
2018-11-04T21:45:08.452Z,6.50
2018-11-04T21:47:36.747Z,6.40
2018-11-04T21:50:05.396Z,6.40
2018-11-04T21:52:33.865Z,6.30
2018-11-04T21:55:02.133Z,6.20
2018-11-04T21:57:30.455Z,6.10
2018-11-04T21:59:58.807Z,6.00
2018-11-04T22:02:27.261Z,5.90
2018-11-04T22:04:55.525Z,5.80
2018-11-04T22:07:23.809Z,5.80
2018-11-04T22:09:52.110Z,5.60
2018-11-04T22:12:20.454Z,5.60
2018-11-04T22:14:48.947Z,5.50
2018-11-04T22:17:17.483Z,5.40
2018-11-04T22:19:45.809Z,5.30
2018-11-04T22:22:14.142Z,5.30
2018-11-04T22:24:42.583Z,5.20
2018-11-04T22:27:10.832Z,6.60
2018-11-04T22:29:39.169Z,5.10
2018-11-04T22:32:07.450Z,5.00
2018-11-04T22:34:35.724Z,5.00
2018-11-04T22:37:04.041Z,5.00
2018-11-04T22:39:32.427Z,4.90
2018-11-04T22:42:00.725Z,4.80
2018-11-04T22:44:29.483Z,4.80
2018-11-04T22:46:57.793Z,4.80
2018-11-04T22:49:26.284Z,4.70
2018-11-04T22:51:54.687Z,4.70
2018-11-04T22:54:22.931Z,4.70
2018-11-04T22:56:51.275Z,4.60
2018-11-04T22:59:19.554Z,4.50
2018-11-04T23:01:47.903Z,4.50
2018-11-04T23:04:16.381Z,4.50
2018-11-04T23:06:44.524Z,4.50
2018-11-04T23:09:12.771Z,4.50
2018-11-04T23:11:41.173Z,4.40
2018-11-04T23:14:09.559Z,4.40
2018-11-04T23:16:37.816Z,4.40
2018-11-04T23:19:06.097Z,4.30
2018-11-04T23:21:34.600Z,4.30
2018-11-04T23:24:02.853Z,4.30
2018-11-04T23:26:31.218Z,4.20
2018-11-04T23:28:59.516Z,4.20
2018-11-04T23:31:27.761Z,4.20
2018-11-04T23:33:56.033Z,4.20
2018-11-04T23:36:24.277Z,4.10
2018-11-04T23:38:52.532Z,4.10
2018-11-04T23:41:20.788Z,4.10
2018-11-04T23:43:49.069Z,4.00
2018-11-04T23:46:17.341Z,4.00
2018-11-04T23:48:45.756Z,4.00
2018-11-04T23:51:14.059Z,4.00
2018-11-04T23:53:42.390Z,3.90
2018-11-04T23:56:10.642Z,3.80
2018-11-04T23:58:38.991Z,3.80
